sensor_id;sensor_type;location;lat;lon;timestamp;P1;durP1;ratioP1;P2;durP2;ratioP2
51467;SDS011;37545;45.302;-122.946;2023-12-07T00:02:15;2.63;;;1.08;;
51467;SDS011;37545;45.302;-122.946;2023-12-07T00:04:43;2.30;;;0.75;;
51467;SDS011;37545;45.302;-122.946;2023-12-07T00:07:12;1.05;;;0.55;;
51467;SDS011;37545;45.302;-122.946;2023-12-07T00:09:41;0.55;;;0.25;;
51467;SDS011;37545;45.302;-122.946;2023-12-07T00:12:10;0.45;;;0.20;;
51467;SDS011;37545;45.302;-122.946;2023-12-07T00:14:39;2.83;;;0.57;;
51467;SDS011;37545;45.302;-122.946;2023-12-07T00:17:07;1.38;;;0.57;;
51467;SDS011;37545;45.302;-122.946;2023-12-07T00:19:38;1.10;;;0.88;;
51467;SDS011;37545;45.302;-122.946;2023-12-07T00:22:11;0.65;;;0.50;;
51467;SDS011;37545;45.302;-122.946;2023-12-07T00:24:40;3.25;;;0.50;;
51467;SDS011;37545;45.302;-122.946;2023-12-07T00:27:09;0.90;;;0.45;;
51467;SDS011;37545;45.302;-122.946;2023-12-07T00:29:37;0.75;;;0.30;;
51467;SDS011;37545;45.302;-122.946;2023-12-07T00:32:06;1.02;;;0.47;;
51467;SDS011;37545;45.302;-122.946;2023-12-07T00:34:39;0.68;;;0.40;;
51467;SDS011;37545;45.302;-122.946;2023-12-07T00:39:37;1.05;;;0.40;;
51467;SDS011;37545;45.302;-122.946;2023-12-07T00:42:09;0.80;;;0.50;;
51467;SDS011;37545;45.302;-122.946;2023-12-07T00:44:39;0.88;;;0.50;;
51467;SDS011;37545;45.302;-122.946;2023-12-07T00:47:08;0.65;;;0.40;;
51467;SDS011;37545;45.302;-122.946;2023-12-07T00:49:39;1.58;;;0.32;;
51467;SDS011;37545;45.302;-122.946;2023-12-07T00:52:16;0.73;;;0.50;;
51467;SDS011;37545;45.302;-122.946;2023-12-07T00:54:45;0.52;;;0.25;;
51467;SDS011;37545;45.302;-122.946;2023-12-07T00:57:14;0.22;;;0.22;;
51467;SDS011;37545;45.302;-122.946;2023-12-07T00:59:42;0.80;;;0.30;;
51467;SDS011;37545;45.302;-122.946;2023-12-07T01:02:13;0.55;;;0.50;;
51467;SDS011;37545;45.302;-122.946;2023-12-07T01:04:44;0.75;;;0.32;;
51467;SDS011;37545;45.302;-122.946;2023-12-07T01:07:12;2.45;;;1.20;;
51467;SDS011;37545;45.302;-122.946;2023-12-07T01:09:41;1.88;;;1.13;;
51467;SDS011;37545;45.302;-122.946;2023-12-07T01:12:11;4.00;;;2.05;;
51467;SDS011;37545;45.302;-122.946;2023-12-07T01:14:40;4.60;;;2.60;;
51467;SDS011;37545;45.302;-122.946;2023-12-07T01:17:09;4.20;;;2.33;;
51467;SDS011;37545;45.302;-122.946;2023-12-07T01:19:38;5.88;;;3.38;;
51467;SDS011;37545;45.302;-122.946;2023-12-07T01:22:08;6.18;;;4.72;;
51467;SDS011;37545;45.302;-122.946;2023-12-07T01:24:37;9.60;;;6.07;;
51467;SDS011;37545;45.302;-122.946;2023-12-07T01:27:09;4.70;;;3.70;;
51467;SDS011;37545;45.302;-122.946;2023-12-07T01:29:40;2.80;;;2.25;;
51467;SDS011;37545;45.302;-122.946;2023-12-07T01:32:10;1.57;;;1.07;;
51467;SDS011;37545;45.302;-122.946;2023-12-07T01:34:38;1.17;;;0.80;;
51467;SDS011;37545;45.302;-122.946;2023-12-07T01:37:12;0.70;;;0.60;;
51467;SDS011;37545;45.302;-122.946;2023-12-07T01:39:41;2.25;;;0.60;;
51467;SDS011;37545;45.302;-122.946;2023-12-07T01:42:10;0.45;;;0.40;;
51467;SDS011;37545;45.302;-122.946;2023-12-07T01:44:39;1.00;;;0.60;;
51467;SDS011;37545;45.302;-122.946;2023-12-07T01:47:07;1.67;;;0.50;;
51467;SDS011;37545;45.302;-122.946;2023-12-07T01:49:36;0.28;;;0.28;;
51467;SDS011;37545;45.302;-122.946;2023-12-07T01:52:05;2.72;;;0.28;;
51467;SDS011;37545;45.302;-122.946;2023-12-07T01:54:38;1.02;;;0.45;;
51467;SDS011;37545;45.302;-122.946;2023-12-07T01:57:07;0.50;;;0.45;;
51467;SDS011;37545;45.302;-122.946;2023-12-07T01:59:36;1.27;;;0.60;;
51467;SDS011;37545;45.302;-122.946;2023-12-07T02:02:04;1.20;;;0.70;;
51467;SDS011;37545;45.302;-122.946;2023-12-07T02:04:34;1.80;;;0.90;;
51467;SDS011;37545;45.302;-122.946;2023-12-07T02:07:03;0.50;;;0.40;;
51467;SDS011;37545;45.302;-122.946;2023-12-07T02:09:34;0.60;;;0.47;;
51467;SDS011;37545;45.302;-122.946;2023-12-07T02:12:05;2.20;;;0.98;;
51467;SDS011;37545;45.302;-122.946;2023-12-07T02:14:34;0.73;;;0.52;;
51467;SDS011;37545;45.302;-122.946;2023-12-07T02:17:05;1.65;;;0.68;;
51467;SDS011;37545;45.302;-122.946;2023-12-07T02:19:53;0.82;;;0.57;;
51467;SDS011;37545;45.302;-122.946;2023-12-07T02:22:29;2.33;;;0.70;;
51467;SDS011;37545;45.302;-122.946;2023-12-07T02:25:07;0.82;;;0.68;;
51467;SDS011;37545;45.302;-122.946;2023-12-07T02:27:39;1.02;;;0.60;;
51467;SDS011;37545;45.302;-122.946;2023-12-07T02:30:09;1.25;;;0.70;;
51467;SDS011;37545;45.302;-122.946;2023-12-07T02:32:38;1.35;;;0.68;;
51467;SDS011;37545;45.302;-122.946;2023-12-07T02:35:10;1.27;;;0.63;;
51467;SDS011;37545;45.302;-122.946;2023-12-07T02:37:41;1.35;;;0.85;;
51467;SDS011;37545;45.302;-122.946;2023-12-07T02:40:21;1.27;;;0.55;;
51467;SDS011;37545;45.302;-122.946;2023-12-07T02:42:52;1.25;;;0.52;;
51467;SDS011;37545;45.302;-122.946;2023-12-07T02:45:24;0.60;;;0.52;;
51467;SDS011;37545;45.302;-122.946;2023-12-07T02:47:53;6.28;;;0.88;;
51467;SDS011;37545;45.302;-122.946;2023-12-07T02:50:21;2.03;;;0.85;;
51467;SDS011;37545;45.302;-122.946;2023-12-07T02:52:51;0.88;;;0.52;;
51467;SDS011;37545;45.302;-122.946;2023-12-07T02:55:21;1.10;;;0.63;;
51467;SDS011;37545;45.302;-122.946;2023-12-07T02:58:02;1.75;;;0.60;;
51467;SDS011;37545;45.302;-122.946;2023-12-07T03:00:32;2.45;;;0.63;;
51467;SDS011;37545;45.302;-122.946;2023-12-07T03:03:01;0.98;;;0.68;;
51467;SDS011;37545;45.302;-122.946;2023-12-07T03:05:31;2.47;;;1.20;;
51467;SDS011;37545;45.302;-122.946;2023-12-07T03:08:02;1.38;;;0.75;;
51467;SDS011;37545;45.302;-122.946;2023-12-07T03:10:34;1.73;;;0.90;;
51467;SDS011;37545;45.302;-122.946;2023-12-07T03:13:12;2.42;;;1.05;;
51467;SDS011;37545;45.302;-122.946;2023-12-07T03:15:47;1.63;;;1.17;;
51467;SDS011;37545;45.302;-122.946;2023-12-07T03:18:16;1.52;;;0.80;;
51467;SDS011;37545;45.302;-122.946;2023-12-07T03:20:45;2.30;;;0.95;;
51467;SDS011;37545;45.302;-122.946;2023-12-07T03:23:15;1.55;;;0.80;;
51467;SDS011;37545;45.302;-122.946;2023-12-07T03:25:44;1.50;;;0.75;;
51467;SDS011;37545;45.302;-122.946;2023-12-07T03:28:14;1.92;;;0.90;;
51467;SDS011;37545;45.302;-122.946;2023-12-07T03:30:43;1.45;;;0.70;;
51467;SDS011;37545;45.302;-122.946;2023-12-07T03:33:12;1.25;;;0.90;;
51467;SDS011;37545;45.302;-122.946;2023-12-07T03:35:41;2.20;;;0.95;;
51467;SDS011;37545;45.302;-122.946;2023-12-07T03:38:10;2.22;;;1.38;;
51467;SDS011;37545;45.302;-122.946;2023-12-07T03:40:38;3.03;;;1.95;;
51467;SDS011;37545;45.302;-122.946;2023-12-07T03:43:07;4.13;;;1.95;;
51467;SDS011;37545;45.302;-122.946;2023-12-07T03:45:37;5.03;;;2.00;;
51467;SDS011;37545;45.302;-122.946;2023-12-07T03:48:06;2.83;;;1.60;;
51467;SDS011;37545;45.302;-122.946;2023-12-07T03:50:34;3.65;;;2.03;;
51467;SDS011;37545;45.302;-122.946;2023-12-07T03:53:03;3.13;;;1.80;;
51467;SDS011;37545;45.302;-122.946;2023-12-07T03:55:32;3.63;;;2.33;;
51467;SDS011;37545;45.302;-122.946;2023-12-07T03:58:01;3.75;;;1.80;;
51467;SDS011;37545;45.302;-122.946;2023-12-07T04:00:32;3.33;;;2.03;;
51467;SDS011;37545;45.302;-122.946;2023-12-07T04:03:03;6.15;;;1.67;;
51467;SDS011;37545;45.302;-122.946;2023-12-07T04:05:31;4.72;;;2.25;;
51467;SDS011;37545;45.302;-122.946;2023-12-07T04:08:00;4.85;;;1.70;;
51467;SDS011;37545;45.302;-122.946;2023-12-07T04:10:31;3.15;;;1.77;;
51467;SDS011;37545;45.302;-122.946;2023-12-07T04:12:59;1.63;;;1.20;;
51467;SDS011;37545;45.302;-122.946;2023-12-07T04:15:28;2.38;;;1.38;;
51467;SDS011;37545;45.302;-122.946;2023-12-07T04:18:10;6.18;;;1.30;;
51467;SDS011;37545;45.302;-122.946;2023-12-07T04:20:39;3.22;;;2.03;;
51467;SDS011;37545;45.302;-122.946;2023-12-07T04:23:08;3.35;;;1.50;;
51467;SDS011;37545;45.302;-122.946;2023-12-07T04:25:36;2.53;;;1.35;;
51467;SDS011;37545;45.302;-122.946;2023-12-07T04:28:08;1.42;;;0.80;;
51467;SDS011;37545;45.302;-122.946;2023-12-07T04:30:43;1.88;;;0.70;;
51467;SDS011;37545;45.302;-122.946;2023-12-07T04:33:14;4.90;;;0.93;;
51467;SDS011;37545;45.302;-122.946;2023-12-07T04:35:42;1.42;;;0.80;;
51467;SDS011;37545;45.302;-122.946;2023-12-07T04:38:11;1.50;;;0.95;;
51467;SDS011;37545;45.302;-122.946;2023-12-07T04:40:43;1.75;;;1.10;;
51467;SDS011;37545;45.302;-122.946;2023-12-07T04:43:12;2.45;;;1.40;;
51467;SDS011;37545;45.302;-122.946;2023-12-07T04:45:41;3.33;;;1.25;;
51467;SDS011;37545;45.302;-122.946;2023-12-07T04:48:10;1.92;;;1.30;;
51467;SDS011;37545;45.302;-122.946;2023-12-07T04:50:40;4.28;;;1.40;;
51467;SDS011;37545;45.302;-122.946;2023-12-07T04:53:09;2.92;;;1.63;;
51467;SDS011;37545;45.302;-122.946;2023-12-07T04:55:38;2.15;;;1.55;;
51467;SDS011;37545;45.302;-122.946;2023-12-07T04:58:08;2.60;;;1.33;;
51467;SDS011;37545;45.302;-122.946;2023-12-07T05:00:37;3.03;;;1.35;;
51467;SDS011;37545;45.302;-122.946;2023-12-07T05:03:05;1.25;;;1.10;;
51467;SDS011;37545;45.302;-122.946;2023-12-07T05:05:34;1.88;;;1.25;;
51467;SDS011;37545;45.302;-122.946;2023-12-07T05:08:05;3.53;;;1.20;;
51467;SDS011;37545;45.302;-122.946;2023-12-07T05:10:34;3.63;;;1.48;;
51467;SDS011;37545;45.302;-122.946;2023-12-07T05:13:02;3.03;;;1.42;;
51467;SDS011;37545;45.302;-122.946;2023-12-07T05:15:34;2.47;;;1.10;;
51467;SDS011;37545;45.302;-122.946;2023-12-07T05:18:03;2.53;;;1.60;;
51467;SDS011;37545;45.302;-122.946;2023-12-07T05:20:32;2.13;;;1.20;;
51467;SDS011;37545;45.302;-122.946;2023-12-07T05:23:01;2.80;;;1.10;;
51467;SDS011;37545;45.302;-122.946;2023-12-07T05:25:32;2.00;;;1.40;;
51467;SDS011;37545;45.302;-122.946;2023-12-07T05:28:01;2.25;;;1.40;;
51467;SDS011;37545;45.302;-122.946;2023-12-07T05:30:31;3.40;;;1.48;;
51467;SDS011;37545;45.302;-122.946;2023-12-07T05:32:59;2.55;;;1.42;;
51467;SDS011;37545;45.302;-122.946;2023-12-07T05:35:33;2.47;;;1.65;;
51467;SDS011;37545;45.302;-122.946;2023-12-07T05:38:01;2.07;;;1.33;;
51467;SDS011;37545;45.302;-122.946;2023-12-07T05:40:32;1.85;;;1.20;;
51467;SDS011;37545;45.302;-122.946;2023-12-07T05:43:01;3.13;;;1.38;;
51467;SDS011;37545;45.302;-122.946;2023-12-07T05:45:35;3.33;;;1.85;;
51467;SDS011;37545;45.302;-122.946;2023-12-07T05:48:04;3.17;;;1.52;;
51467;SDS011;37545;45.302;-122.946;2023-12-07T05:50:32;3.63;;;1.52;;
51467;SDS011;37545;45.302;-122.946;2023-12-07T05:53:05;1.50;;;0.90;;
51467;SDS011;37545;45.302;-122.946;2023-12-07T05:55:36;1.27;;;0.93;;
51467;SDS011;37545;45.302;-122.946;2023-12-07T06:00:35;2.97;;;1.45;;
51467;SDS011;37545;45.302;-122.946;2023-12-07T06:03:05;2.47;;;1.60;;
51467;SDS011;37545;45.302;-122.946;2023-12-07T06:05:37;1.45;;;1.15;;
51467;SDS011;37545;45.302;-122.946;2023-12-07T06:08:06;1.92;;;1.30;;
51467;SDS011;37545;45.302;-122.946;2023-12-07T06:10:36;1.77;;;1.20;;
51467;SDS011;37545;45.302;-122.946;2023-12-07T06:13:05;1.77;;;1.25;;
51467;SDS011;37545;45.302;-122.946;2023-12-07T06:15:34;2.50;;;1.02;;
51467;SDS011;37545;45.302;-122.946;2023-12-07T06:18:03;1.48;;;1.00;;
51467;SDS011;37545;45.302;-122.946;2023-12-07T06:20:32;1.42;;;0.80;;
51467;SDS011;37545;45.302;-122.946;2023-12-07T06:23:01;1.25;;;0.80;;
51467;SDS011;37545;45.302;-122.946;2023-12-07T06:25:30;1.67;;;1.08;;
51467;SDS011;37545;45.302;-122.946;2023-12-07T06:28:00;1.15;;;0.82;;
51467;SDS011;37545;45.302;-122.946;2023-12-07T06:30:32;2.25;;;0.50;;
51467;SDS011;37545;45.302;-122.946;2023-12-07T06:33:01;0.95;;;0.55;;
51467;SDS011;37545;45.302;-122.946;2023-12-07T06:35:32;2.83;;;0.70;;
51467;SDS011;37545;45.302;-122.946;2023-12-07T06:38:01;2.00;;;0.68;;
51467;SDS011;37545;45.302;-122.946;2023-12-07T06:40:36;0.88;;;0.55;;
51467;SDS011;37545;45.302;-122.946;2023-12-07T06:43:06;0.30;;;0.30;;
51467;SDS011;37545;45.302;-122.946;2023-12-07T06:45:35;1.65;;;0.55;;
51467;SDS011;37545;45.302;-122.946;2023-12-07T06:48:04;0.32;;;0.30;;
51467;SDS011;37545;45.302;-122.946;2023-12-07T06:50:37;0.30;;;0.30;;
51467;SDS011;37545;45.302;-122.946;2023-12-07T06:53:06;0.45;;;0.32;;
51467;SDS011;37545;45.302;-122.946;2023-12-07T06:55:35;0.70;;;0.30;;
51467;SDS011;37545;45.302;-122.946;2023-12-07T06:58:03;0.80;;;0.30;;
51467;SDS011;37545;45.302;-122.946;2023-12-07T07:00:34;0.28;;;0.22;;
51467;SDS011;37545;45.302;-122.946;2023-12-07T07:03:03;0.20;;;0.20;;
51467;SDS011;37545;45.302;-122.946;2023-12-07T07:05:36;0.25;;;0.25;;
51467;SDS011;37545;45.302;-122.946;2023-12-07T07:08:11;2.95;;;0.60;;
51467;SDS011;37545;45.302;-122.946;2023-12-07T07:10:43;1.63;;;0.20;;
51467;SDS011;37545;45.302;-122.946;2023-12-07T07:13:14;0.57;;;0.30;;
51467;SDS011;37545;45.302;-122.946;2023-12-07T07:15:49;2.40;;;0.25;;
51467;SDS011;37545;45.302;-122.946;2023-12-07T07:18:18;0.38;;;0.30;;
51467;SDS011;37545;45.302;-122.946;2023-12-07T07:20:49;4.75;;;0.38;;
51467;SDS011;37545;45.302;-122.946;2023-12-07T07:23:18;0.30;;;0.20;;
51467;SDS011;37545;45.302;-122.946;2023-12-07T07:25:47;1.05;;;0.40;;
51467;SDS011;37545;45.302;-122.946;2023-12-07T07:28:17;0.45;;;0.30;;
51467;SDS011;37545;45.302;-122.946;2023-12-07T07:30:46;1.42;;;0.50;;
51467;SDS011;37545;45.302;-122.946;2023-12-07T07:33:14;0.65;;;0.40;;
51467;SDS011;37545;45.302;-122.946;2023-12-07T07:35:43;1.00;;;0.50;;
51467;SDS011;37545;45.302;-122.946;2023-12-07T07:38:12;0.30;;;0.30;;
51467;SDS011;37545;45.302;-122.946;2023-12-07T07:40:41;0.43;;;0.30;;
51467;SDS011;37545;45.302;-122.946;2023-12-07T07:43:10;0.35;;;0.30;;
51467;SDS011;37545;45.302;-122.946;2023-12-07T07:45:41;0.88;;;0.30;;
51467;SDS011;37545;45.302;-122.946;2023-12-07T07:48:11;0.35;;;0.30;;
51467;SDS011;37545;45.302;-122.946;2023-12-07T07:50:40;0.55;;;0.30;;
51467;SDS011;37545;45.302;-122.946;2023-12-07T07:53:08;3.58;;;0.52;;
51467;SDS011;37545;45.302;-122.946;2023-12-07T07:55:37;0.40;;;0.38;;
51467;SDS011;37545;45.302;-122.946;2023-12-07T07:58:06;0.45;;;0.30;;
51467;SDS011;37545;45.302;-122.946;2023-12-07T08:00:35;0.73;;;0.28;;
51467;SDS011;37545;45.302;-122.946;2023-12-07T08:03:05;0.65;;;0.38;;
51467;SDS011;37545;45.302;-122.946;2023-12-07T08:05:34;1.95;;;0.43;;
51467;SDS011;37545;45.302;-122.946;2023-12-07T08:08:03;1.52;;;0.25;;
51467;SDS011;37545;45.302;-122.946;2023-12-07T08:10:32;1.17;;;0.50;;
51467;SDS011;37545;45.302;-122.946;2023-12-07T08:13:01;2.15;;;0.70;;
51467;SDS011;37545;45.302;-122.946;2023-12-07T08:15:32;1.60;;;0.65;;
51467;SDS011;37545;45.302;-122.946;2023-12-07T08:18:01;0.93;;;0.60;;
51467;SDS011;37545;45.302;-122.946;2023-12-07T08:20:33;0.50;;;0.30;;
51467;SDS011;37545;45.302;-122.946;2023-12-07T08:23:01;2.30;;;0.60;;
51467;SDS011;37545;45.302;-122.946;2023-12-07T08:25:30;0.77;;;0.60;;
51467;SDS011;37545;45.302;-122.946;2023-12-07T08:27:59;0.20;;;0.20;;
51467;SDS011;37545;45.302;-122.946;2023-12-07T08:30:28;0.32;;;0.22;;
51467;SDS011;37545;45.302;-122.946;2023-12-07T08:32:57;1.95;;;0.40;;
51467;SDS011;37545;45.302;-122.946;2023-12-07T08:35:26;0.40;;;0.30;;
51467;SDS011;37545;45.302;-122.946;2023-12-07T08:37:59;0.77;;;0.63;;
51467;SDS011;37545;45.302;-122.946;2023-12-07T08:40:28;0.20;;;0.20;;
51467;SDS011;37545;45.302;-122.946;2023-12-07T08:43:00;1.75;;;0.20;;
51467;SDS011;37545;45.302;-122.946;2023-12-07T08:45:33;0.30;;;0.22;;
51467;SDS011;37545;45.302;-122.946;2023-12-07T08:48:04;0.30;;;0.20;;
51467;SDS011;37545;45.302;-122.946;2023-12-07T08:50:33;0.25;;;0.20;;
51467;SDS011;37545;45.302;-122.946;2023-12-07T08:53:04;0.22;;;0.20;;
51467;SDS011;37545;45.302;-122.946;2023-12-07T08:55:32;2.72;;;0.20;;
51467;SDS011;37545;45.302;-122.946;2023-12-07T08:58:03;0.10;;;0.10;;
51467;SDS011;37545;45.302;-122.946;2023-12-07T09:00:32;1.20;;;0.38;;
51467;SDS011;37545;45.302;-122.946;2023-12-07T09:03:01;0.38;;;0.20;;
51467;SDS011;37545;45.302;-122.946;2023-12-07T09:05:33;0.52;;;0.20;;
51467;SDS011;37545;45.302;-122.946;2023-12-07T09:08:04;1.53;;;0.30;;
51467;SDS011;37545;45.302;-122.946;2023-12-07T09:10:32;2.70;;;0.45;;
51467;SDS011;37545;45.302;-122.946;2023-12-07T09:13:01;0.40;;;0.20;;
51467;SDS011;37545;45.302;-122.946;2023-12-07T09:15:31;0.15;;;0.15;;
51467;SDS011;37545;45.302;-122.946;2023-12-07T09:18:02;0.20;;;0.10;;
51467;SDS011;37545;45.302;-122.946;2023-12-07T09:20:31;0.35;;;0.28;;
51467;SDS011;37545;45.302;-122.946;2023-12-07T09:23:00;0.32;;;0.20;;
51467;SDS011;37545;45.302;-122.946;2023-12-07T09:25:34;2.17;;;0.57;;
51467;SDS011;37545;45.302;-122.946;2023-12-07T09:28:04;0.60;;;0.30;;
51467;SDS011;37545;45.302;-122.946;2023-12-07T09:30:33;0.52;;;0.40;;
51467;SDS011;37545;45.302;-122.946;2023-12-07T09:33:02;0.55;;;0.50;;
51467;SDS011;37545;45.302;-122.946;2023-12-07T09:35:33;0.80;;;0.55;;
51467;SDS011;37545;45.302;-122.946;2023-12-07T09:38:03;0.75;;;0.40;;
51467;SDS011;37545;45.302;-122.946;2023-12-07T09:40:34;0.60;;;0.32;;
51467;SDS011;37545;45.302;-122.946;2023-12-07T09:43:03;0.65;;;0.40;;
51467;SDS011;37545;45.302;-122.946;2023-12-07T09:45:31;0.43;;;0.30;;
51467;SDS011;37545;45.302;-122.946;2023-12-07T09:48:00;1.83;;;0.57;;
51467;SDS011;37545;45.302;-122.946;2023-12-07T09:50:34;1.90;;;0.30;;
51467;SDS011;37545;45.302;-122.946;2023-12-07T09:53:03;1.02;;;0.20;;
51467;SDS011;37545;45.302;-122.946;2023-12-07T09:55:32;0.35;;;0.30;;
51467;SDS011;37545;45.302;-122.946;2023-12-07T09:58:10;0.43;;;0.20;;
51467;SDS011;37545;45.302;-122.946;2023-12-07T10:00:40;0.20;;;0.20;;
51467;SDS011;37545;45.302;-122.946;2023-12-07T10:03:09;1.35;;;0.30;;
51467;SDS011;37545;45.302;-122.946;2023-12-07T10:05:55;2.42;;;0.40;;
51467;SDS011;37545;45.302;-122.946;2023-12-07T10:08:26;1.45;;;0.50;;
51467;SDS011;37545;45.302;-122.946;2023-12-07T10:11:05;0.68;;;0.40;;
51467;SDS011;37545;45.302;-122.946;2023-12-07T10:13:35;0.43;;;0.30;;
51467;SDS011;37545;45.302;-122.946;2023-12-07T10:16:08;0.90;;;0.30;;
51467;SDS011;37545;45.302;-122.946;2023-12-07T10:18:37;0.43;;;0.30;;
51467;SDS011;37545;45.302;-122.946;2023-12-07T10:21:07;0.77;;;0.50;;
51467;SDS011;37545;45.302;-122.946;2023-12-07T10:23:36;1.10;;;0.52;;
51467;SDS011;37545;45.302;-122.946;2023-12-07T10:26:07;1.02;;;0.40;;
51467;SDS011;37545;45.302;-122.946;2023-12-07T10:28:36;1.80;;;0.38;;
51467;SDS011;37545;45.302;-122.946;2023-12-07T10:31:06;0.55;;;0.45;;
51467;SDS011;37545;45.302;-122.946;2023-12-07T10:33:37;0.73;;;0.30;;
51467;SDS011;37545;45.302;-122.946;2023-12-07T10:36:06;1.00;;;0.65;;
51467;SDS011;37545;45.302;-122.946;2023-12-07T10:38:36;0.30;;;0.22;;
51467;SDS011;37545;45.302;-122.946;2023-12-07T10:41:09;0.75;;;0.50;;
51467;SDS011;37545;45.302;-122.946;2023-12-07T10:43:41;0.45;;;0.28;;
51467;SDS011;37545;45.302;-122.946;2023-12-07T10:46:13;0.55;;;0.20;;
51467;SDS011;37545;45.302;-122.946;2023-12-07T10:48:44;0.52;;;0.30;;
51467;SDS011;37545;45.302;-122.946;2023-12-07T10:51:14;0.68;;;0.40;;
51467;SDS011;37545;45.302;-122.946;2023-12-07T10:53:50;1.10;;;0.52;;
51467;SDS011;37545;45.302;-122.946;2023-12-07T10:56:23;1.10;;;0.35;;
51467;SDS011;37545;45.302;-122.946;2023-12-07T10:58:57;0.22;;;0.20;;
51467;SDS011;37545;45.302;-122.946;2023-12-07T11:01:26;0.82;;;0.25;;
51467;SDS011;37545;45.302;-122.946;2023-12-07T11:03:59;10.25;;;0.88;;
51467;SDS011;37545;45.302;-122.946;2023-12-07T11:06:33;2.53;;;0.30;;
51467;SDS011;37545;45.302;-122.946;2023-12-07T11:09:03;0.63;;;0.30;;
51467;SDS011;37545;45.302;-122.946;2023-12-07T11:11:39;0.98;;;0.30;;
51467;SDS011;37545;45.302;-122.946;2023-12-07T11:14:12;3.35;;;0.40;;
51467;SDS011;37545;45.302;-122.946;2023-12-07T11:16:42;0.47;;;0.13;;
51467;SDS011;37545;45.302;-122.946;2023-12-07T11:22:12;0.90;;;0.60;;
51467;SDS011;37545;45.302;-122.946;2023-12-07T11:24:56;0.52;;;0.20;;
51467;SDS011;37545;45.302;-122.946;2023-12-07T11:27:32;0.52;;;0.25;;
51467;SDS011;37545;45.302;-122.946;2023-12-07T11:30:02;1.45;;;0.57;;
51467;SDS011;37545;45.302;-122.946;2023-12-07T11:32:31;0.47;;;0.28;;
51467;SDS011;37545;45.302;-122.946;2023-12-07T11:35:02;2.75;;;0.25;;
51467;SDS011;37545;45.302;-122.946;2023-12-07T11:40:34;0.98;;;0.20;;
51467;SDS011;37545;45.302;-122.946;2023-12-07T11:43:05;0.43;;;0.43;;
51467;SDS011;37545;45.302;-122.946;2023-12-07T11:45:37;0.38;;;0.30;;
51467;SDS011;37545;45.302;-122.946;2023-12-07T11:48:10;2.13;;;0.85;;
51467;SDS011;37545;45.302;-122.946;2023-12-07T11:53:33;0.77;;;0.43;;
51467;SDS011;37545;45.302;-122.946;2023-12-07T11:56:03;0.38;;;0.38;;
51467;SDS011;37545;45.302;-122.946;2023-12-07T11:58:35;0.85;;;0.25;;
51467;SDS011;37545;45.302;-122.946;2023-12-07T12:01:04;0.45;;;0.10;;
51467;SDS011;37545;45.302;-122.946;2023-12-07T12:03:33;0.20;;;0.20;;
51467;SDS011;37545;45.302;-122.946;2023-12-07T12:06:05;1.95;;;0.60;;
51467;SDS011;37545;45.302;-122.946;2023-12-07T12:08:36;0.20;;;0.20;;
51467;SDS011;37545;45.302;-122.946;2023-12-07T12:11:06;0.57;;;0.20;;
51467;SDS011;37545;45.302;-122.946;2023-12-07T12:13:36;1.75;;;0.30;;
51467;SDS011;37545;45.302;-122.946;2023-12-07T12:16:05;0.30;;;0.10;;
51467;SDS011;37545;45.302;-122.946;2023-12-07T12:18:35;2.10;;;0.25;;
51467;SDS011;37545;45.302;-122.946;2023-12-07T12:21:06;3.95;;;0.32;;
51467;SDS011;37545;45.302;-122.946;2023-12-07T12:23:36;0.70;;;0.20;;
51467;SDS011;37545;45.302;-122.946;2023-12-07T12:26:05;1.20;;;0.38;;
51467;SDS011;37545;45.302;-122.946;2023-12-07T12:28:37;2.40;;;0.38;;
51467;SDS011;37545;45.302;-122.946;2023-12-07T12:31:09;1.75;;;0.35;;
51467;SDS011;37545;45.302;-122.946;2023-12-07T12:33:38;0.75;;;0.10;;
51467;SDS011;37545;45.302;-122.946;2023-12-07T12:36:07;0.55;;;0.20;;
51467;SDS011;37545;45.302;-122.946;2023-12-07T12:38:36;1.25;;;0.20;;
51467;SDS011;37545;45.302;-122.946;2023-12-07T12:41:06;0.15;;;0.15;;
51467;SDS011;37545;45.302;-122.946;2023-12-07T12:43:34;2.17;;;0.10;;
51467;SDS011;37545;45.302;-122.946;2023-12-07T12:46:05;0.73;;;0.22;;
51467;SDS011;37545;45.302;-122.946;2023-12-07T12:48:33;0.77;;;0.20;;
51467;SDS011;37545;45.302;-122.946;2023-12-07T12:51:12;1.00;;;0.50;;
51467;SDS011;37545;45.302;-122.946;2023-12-07T12:53:45;4.28;;;0.30;;
51467;SDS011;37545;45.302;-122.946;2023-12-07T12:56:16;0.10;;;0.10;;
51467;SDS011;37545;45.302;-122.946;2023-12-07T12:58:47;0.77;;;0.20;;
51467;SDS011;37545;45.302;-122.946;2023-12-07T13:01:22;1.02;;;0.30;;
51467;SDS011;37545;45.302;-122.946;2023-12-07T13:03:51;0.57;;;0.32;;
51467;SDS011;37545;45.302;-122.946;2023-12-07T13:06:19;1.65;;;0.22;;
51467;SDS011;37545;45.302;-122.946;2023-12-07T13:08:48;1.73;;;0.28;;
51467;SDS011;37545;45.302;-122.946;2023-12-07T13:11:22;2.92;;;0.20;;
51467;SDS011;37545;45.302;-122.946;2023-12-07T13:13:55;1.35;;;0.28;;
51467;SDS011;37545;45.302;-122.946;2023-12-07T13:16:24;0.73;;;0.20;;
51467;SDS011;37545;45.302;-122.946;2023-12-07T13:18:53;0.32;;;0.20;;
51467;SDS011;37545;45.302;-122.946;2023-12-07T13:21:22;1.77;;;0.43;;
51467;SDS011;37545;45.302;-122.946;2023-12-07T13:23:54;0.22;;;0.13;;
51467;SDS011;37545;45.302;-122.946;2023-12-07T13:26:24;1.33;;;0.20;;
51467;SDS011;37545;45.302;-122.946;2023-12-07T13:29:02;0.20;;;0.20;;
51467;SDS011;37545;45.302;-122.946;2023-12-07T13:31:33;0.73;;;0.20;;
51467;SDS011;37545;45.302;-122.946;2023-12-07T13:34:02;0.25;;;0.20;;
51467;SDS011;37545;45.302;-122.946;2023-12-07T13:36:31;2.33;;;0.20;;
51467;SDS011;37545;45.302;-122.946;2023-12-07T13:39:01;3.63;;;0.75;;
51467;SDS011;37545;45.302;-122.946;2023-12-07T13:41:31;1.75;;;0.50;;
51467;SDS011;37545;45.302;-122.946;2023-12-07T13:43:59;3.20;;;0.63;;
51467;SDS011;37545;45.302;-122.946;2023-12-07T13:46:33;0.88;;;0.50;;
51467;SDS011;37545;45.302;-122.946;2023-12-07T13:49:03;0.30;;;0.15;;
51467;SDS011;37545;45.302;-122.946;2023-12-07T13:51:32;1.42;;;0.75;;
51467;SDS011;37545;45.302;-122.946;2023-12-07T13:54:01;2.30;;;0.55;;
51467;SDS011;37545;45.302;-122.946;2023-12-07T13:56:33;0.63;;;0.20;;
51467;SDS011;37545;45.302;-122.946;2023-12-07T13:59:04;2.47;;;0.40;;
51467;SDS011;37545;45.302;-122.946;2023-12-07T14:01:36;0.80;;;0.30;;
51467;SDS011;37545;45.302;-122.946;2023-12-07T14:04:05;1.40;;;0.20;;
51467;SDS011;37545;45.302;-122.946;2023-12-07T14:06:41;1.88;;;0.30;;
51467;SDS011;37545;45.302;-122.946;2023-12-07T14:09:12;0.30;;;0.30;;
51467;SDS011;37545;45.302;-122.946;2023-12-07T14:11:41;1.02;;;0.30;;
51467;SDS011;37545;45.302;-122.946;2023-12-07T14:14:12;2.35;;;0.20;;
51467;SDS011;37545;45.302;-122.946;2023-12-07T14:16:42;0.63;;;0.30;;
51467;SDS011;37545;45.302;-122.946;2023-12-07T14:19:13;0.98;;;0.28;;
51467;SDS011;37545;45.302;-122.946;2023-12-07T14:21:42;2.83;;;0.15;;
51467;SDS011;37545;45.302;-122.946;2023-12-07T14:24:10;1.05;;;0.30;;
51467;SDS011;37545;45.302;-122.946;2023-12-07T14:26:42;0.20;;;0.15;;
51467;SDS011;37545;45.302;-122.946;2023-12-07T14:29:12;0.50;;;0.10;;
51467;SDS011;37545;45.302;-122.946;2023-12-07T14:31:46;0.20;;;0.20;;
51467;SDS011;37545;45.302;-122.946;2023-12-07T14:34:16;0.20;;;0.17;;
51467;SDS011;37545;45.302;-122.946;2023-12-07T14:36:45;0.17;;;0.10;;
51467;SDS011;37545;45.302;-122.946;2023-12-07T14:39:14;0.20;;;0.10;;
51467;SDS011;37545;45.302;-122.946;2023-12-07T14:41:44;0.38;;;0.10;;